Time;durP1;ratioP1;P1;durP2;ratioP2;P2;SDS_P1;SDS_P2;PMS_P1;PMS_P2;Temp;Humidity;BMP_temperature;BMP_pressure;BME280_temperature;BME280_humidity;BME280_pressure;Samples;Min_cycle;Max_cycle;Signal;HPM_P1;HPM_P2
2022/08/27 00:01:09;;;;;;;9.93;5.63;;;;;;;22.84;40.16;100222.70;1698711;82;21055;-70
2022/08/27 00:03:35;;;;;;;9.67;5.73;;;;;;;22.86;40.00;100223.92;1698141;82;20999;-70
2022/08/27 00:06:03;;;;;;;8.40;5.53;;;;;;;22.85;39.96;100220.20;1698566;82;21162;-69
2022/08/27 00:08:30;;;;;;;9.20;5.73;;;;;;;22.85;40.13;100227.00;1698420;82;21069;-68
2022/08/27 00:10:56;;;;;;;9.47;5.70;;;;;;;22.84;40.17;100226.80;1697896;82;21262;-70
2022/08/27 00:13:23;;;;;;;8.43;5.57;;;;;;;22.82;40.12;100227.70;1697596;82;20976;-69
2022/08/27 00:15:49;;;;;;;9.83;5.90;;;;;;;22.82;40.11;100229.84;1698829;82;21008;-69
2022/08/27 00:18:16;;;;;;;9.20;5.87;;;;;;;22.82;40.30;100224.98;1697995;82;21101;-69
2022/08/27 00:20:43;;;;;;;9.73;5.67;;;;;;;22.81;40.35;100227.48;1701117;83;21603;-69
2022/08/27 00:23:10;;;;;;;9.37;5.93;;;;;;;22.82;40.24;100225.77;1697935;82;21216;-69
2022/08/27 00:25:37;;;;;;;8.00;5.70;;;;;;;22.83;40.39;100219.74;1698551;82;20971;-69
2022/08/27 00:28:05;;;;;;;11.27;5.87;;;;;;;22.84;40.19;100226.22;1698052;82;21443;-69
2022/08/27 00:30:31;;;;;;;9.13;5.97;;;;;;;22.85;40.51;100232.45;1700105;82;21622;-69
2022/08/27 00:32:58;;;;;;;9.03;5.47;;;;;;;22.90;40.51;100226.73;1697938;82;21075;-69
2022/08/27 00:35:25;;;;;;;9.03;5.90;;;;;;;22.88;40.59;100223.02;1698296;82;22103;-69
2022/08/27 00:37:52;;;;;;;7.73;5.33;;;;;;;22.87;40.57;100233.70;1699616;82;21026;-69
2022/08/27 00:40:20;;;;;;;8.60;5.97;;;;;;;22.88;40.41;100224.95;1698562;82;21063;-70
2022/08/27 00:42:46;;;;;;;8.07;5.57;;;;;;;22.81;40.74;100222.04;1698277;82;21073;-69
2022/08/27 00:45:16;;;;;;;8.77;5.83;;;;;;;22.80;40.70;100224.52;1697302;82;22441;-68
2022/08/27 00:47:49;;;;;;;10.57;6.53;;;;;;;22.79;40.62;100234.63;1698864;82;21135;-69
2022/08/27 00:50:24;;;;;;;10.87;6.00;;;;;;;22.76;40.68;100228.51;1701961;83;21002;-69
2022/08/27 00:52:58;;;;;;;9.93;5.97;;;;;;;22.76;40.70;100232.59;1706688;83;21076;-68
2022/08/27 00:55:28;;;;;;;9.17;5.63;;;;;;;22.76;40.70;100232.59;1699088;82;21585;-68
2022/08/27 00:58:21;;;;;;;8.30;6.10;;;;;;;22.73;40.89;100228.41;1697940;82;21134;-68
2022/08/27 01:00:48;;;;;;;9.17;6.10;;;;;;;22.68;41.07;100230.25;1698924;82;21485;-68
2022/08/27 01:03:14;;;;;;;11.47;6.17;;;;;;;22.67;41.15;100230.03;1696748;82;21408;-69
2022/08/27 01:05:42;;;;;;;9.73;5.73;;;;;;;22.66;41.25;100228.43;1698253;82;20955;-68
2022/08/27 01:08:13;;;;;;;10.80;6.40;;;;;;;22.63;41.09;100225.61;1698149;82;21085;-68
2022/08/27 01:10:41;;;;;;;9.33;6.13;;;;;;;22.57;41.08;100227.78;1699463;82;21070;-68
2022/08/27 01:13:10;;;;;;;9.13;5.90;;;;;;;22.52;41.53;100233.48;1698185;82;21330;-70
2022/08/27 01:15:38;;;;;;;8.93;6.00;;;;;;;22.46;41.83;100232.92;1697912;82;21050;-69
2022/08/27 01:18:05;;;;;;;9.13;6.10;;;;;;;22.40;41.68;100238.38;1692802;82;21027;-69
2022/08/27 01:20:55;;;;;;;9.93;5.90;;;;;;;22.36;42.28;100236.70;1701009;82;21529;-69
2022/08/27 01:23:35;;;;;;;8.87;5.77;;;;;;;22.32;41.94;100239.89;1700003;83;21063;-69
2022/08/27 01:26:03;;;;;;;9.13;6.17;;;;;;;22.29;42.24;100237.28;1716567;83;21132;-69
2022/08/27 01:28:30;;;;;;;8.33;5.53;;;;;;;22.24;42.19;100244.31;1706250;83;21024;-71
2022/08/27 01:30:56;;;;;;;9.27;6.37;;;;;;;22.21;42.26;100243.09;1701870;83;21058;-69
2022/08/27 01:33:23;;;;;;;10.67;6.33;;;;;;;22.18;42.49;100246.50;1701167;84;20973;-69
2022/08/27 01:35:51;;;;;;;10.83;6.37;;;;;;;22.14;42.50;100243.39;1701529;83;20939;-68
2022/08/27 01:38:22;;;;;;;8.70;6.47;;;;;;;22.09;42.84;100245.00;1707427;82;21166;-69
2022/08/27 01:40:49;;;;;;;9.23;6.50;;;;;;;22.08;42.68;100242.86;1701381;84;20968;-68
2022/08/27 01:43:16;;;;;;;8.57;6.23;;;;;;;22.07;42.62;100237.74;1701188;84;21078;-68
2022/08/27 01:45:48;;;;;;;10.10;6.27;;;;;;;22.03;42.63;100245.00;1701650;84;21027;-69
2022/08/27 01:48:19;;;;;;;9.10;6.47;;;;;;;22.01;42.66;100243.97;1701321;83;21110;-69
2022/08/27 01:50:47;;;;;;;8.18;6.20;;;;;;;21.97;42.65;100241.14;1671387;84;21956;-69
2022/08/27 01:53:20;;;;;;;9.77;6.00;;;;;;;21.94;42.83;100237.75;1698155;82;21608;-69
2022/08/27 01:55:48;;;;;;;10.77;6.47;;;;;;;21.94;42.83;100236.95;1697035;82;21573;-67
2022/08/27 01:58:19;;;;;;;7.97;5.93;;;;;;;21.89;43.02;100239.35;1698532;82;21625;-69
2022/08/27 02:00:48;;;;;;;10.53;6.57;;;;;;;21.87;42.88;100238.09;1699677;82;21551;-68
2022/08/27 02:03:17;;;;;;;9.03;6.17;;;;;;;21.86;42.89;100235.95;1696139;82;21917;-69
2022/08/27 02:05:45;;;;;;;11.47;6.30;;;;;;;21.85;42.99;100229.48;1699799;82;21111;-69
2022/08/27 02:08:14;;;;;;;9.37;6.70;;;;;;;21.84;43.09;100231.98;1698312;82;21344;-69
2022/08/27 02:10:42;;;;;;;11.63;6.50;;;;;;;21.82;42.94;100224.18;1698047;82;20996;-70
2022/08/27 02:13:09;;;;;;;8.83;6.80;;;;;;;21.81;42.96;100229.94;1698644;82;21546;-69
2022/08/27 02:15:36;;;;;;;9.73;6.47;;;;;;;21.84;42.86;100230.63;1697333;82;21970;-68
2022/08/27 02:18:03;;;;;;;10.90;6.57;;;;;;;21.76;42.96;100223.61;1697378;82;21070;-68
2022/08/27 02:20:30;;;;;;;10.53;6.33;;;;;;;21.73;43.33;100228.36;1697909;82;21087;-69
2022/08/27 02:22:57;;;;;;;8.90;6.57;;;;;;;21.72;43.17;100226.78;1698606;82;22185;-68
2022/08/27 02:25:25;;;;;;;9.27;6.20;;;;;;;21.71;43.36;100226.54;1698162;82;21435;-69
2022/08/27 02:27:55;;;;;;;10.90;6.20;;;;;;;21.71;43.67;100223.82;1698274;82;21134;-69
2022/08/27 02:30:23;;;;;;;13.53;6.47;;;;;;;21.71;43.80;100229.26;1695791;82;21518;-69
2022/08/27 02:32:51;;;;;;;12.40;6.90;;;;;;;21.72;43.82;100224.64;1698962;82;21062;-69
2022/08/27 02:35:20;;;;;;;9.30;6.47;;;;;;;21.70;43.89;100229.04;1695506;82;21550;-69
2022/08/27 02:37:47;;;;;;;9.07;6.33;;;;;;;21.74;43.86;100237.30;1701315;84;21042;-69
2022/08/27 02:40:17;;;;;;;9.40;6.13;;;;;;;21.74;44.23;100229.15;1699031;82;21904;-68
2022/08/27 02:42:44;;;;;;;9.63;6.63;;;;;;;21.74;44.58;100224.50;1698454;82;21146;-69
2022/08/27 02:45:11;;;;;;;8.93;6.10;;;;;;;21.73;44.54;100224.86;1698016;82;21088;-69
2022/08/27 02:47:40;;;;;;;11.87;6.40;;;;;;;21.73;44.72;100216.70;1697924;82;21577;-70
2022/08/27 02:50:07;;;;;;;11.63;6.63;;;;;;;21.73;44.87;100221.56;1699575;82;21074;-69
2022/08/27 02:52:34;;;;;;;11.87;6.20;;;;;;;21.73;44.79;100220.78;1698649;82;21201;-70
2022/08/27 02:55:01;;;;;;;10.03;6.83;;;;;;;21.74;44.51;100219.06;1699584;83;21228;-69
2022/08/27 02:57:28;;;;;;;10.53;6.97;;;;;;;21.73;44.62;100219.42;1700494;82;21034;-69
2022/08/27 02:59:54;;;;;;;8.93;6.27;;;;;;;21.74;44.16;100218.27;1699258;83;21259;-70
2022/08/27 03:02:22;;;;;;;8.13;6.23;;;;;;;21.79;44.16;100223.50;1701088;84;21048;-70
2022/08/27 03:04:49;;;;;;;11.70;7.03;;;;;;;21.85;43.98;100221.33;1704251;82;21228;-69
2022/08/27 03:07:16;;;;;;;8.90;6.33;;;;;;;21.90;44.24;100225.19;1700993;84;20993;-70
2022/08/27 03:09:43;;;;;;;12.17;7.03;;;;;;;21.91;44.23;100217.24;1695473;84;20994;-69
2022/08/27 03:12:11;;;;;;;9.10;6.07;;;;;;;21.94;43.72;100213.84;1700951;84;21144;-70
2022/08/27 03:14:39;;;;;;;10.17;6.73;;;;;;;21.97;43.64;100218.60;1701595;84;21027;-68
2022/08/27 03:19:52;;;;;;;10.33;6.13;;;;;;;22.00;43.73;100220.07;1697973;82;21085;-69
2022/08/27 03:22:18;;;;;;;9.07;6.20;;;;;;;22.02;44.00;100214.30;1698012;82;21121;-70
2022/08/27 03:24:45;;;;;;;9.83;6.53;;;;;;;22.05;43.91;100218.27;1695054;82;21609;-69
2022/08/27 03:27:12;;;;;;;9.87;6.50;;;;;;;22.05;43.98;100221.78;1659540;82;21083;-68
2022/08/27 03:29:38;;;;;;;14.00;6.73;;;;;;;22.08;44.22;100216.20;1699512;82;21222;-69
2022/08/27 03:32:06;;;;;;;10.40;6.37;;;;;;;22.09;44.05;100218.59;1700284;82;21141;-69
2022/08/27 03:34:33;;;;;;;9.10;6.03;;;;;;;22.13;44.24;100210.54;1699319;82;21114;-69
2022/08/27 03:37:00;;;;;;;9.63;6.50;;;;;;;22.15;44.20;100211.81;1705849;83;22156;-69
2022/08/27 03:39:26;;;;;;;10.10;6.53;;;;;;;22.18;43.84;100213.06;1670700;82;21058;-69
2022/08/27 03:41:54;;;;;;;9.17;5.80;;;;;;;22.21;43.65;100213.71;1698263;82;21290;-69
2022/08/27 03:44:23;;;;;;;9.47;6.00;;;;;;;22.22;43.71;100212.02;1698448;82;21037;-69
2022/08/27 03:46:51;;;;;;;9.03;6.53;;;;;;;22.27;43.74;100210.19;1697611;82;21055;-70
2022/08/27 03:49:19;;;;;;;10.23;6.57;;;;;;;22.30;43.66;100217.67;1698200;82;21142;-70
2022/08/27 03:51:45;;;;;;;9.37;6.47;;;;;;;22.32;44.01;100211.33;1698832;82;21534;-69
2022/08/27 03:54:12;;;;;;;10.40;6.70;;;;;;;22.34;44.13;100207.13;1697951;82;21798;-70
2022/08/27 03:56:40;;;;;;;9.80;6.33;;;;;;;22.34;44.03;100209.03;1697941;82;21071;-70
2022/08/27 03:59:07;;;;;;;11.10;6.63;;;;;;;22.32;44.18;100202.59;1701759;82;21476;-69
2022/08/27 04:01:34;;;;;;;11.57;6.57;;;;;;;22.35;44.01;100203.84;1698093;82;21545;-70
2022/08/27 04:04:02;;;;;;;8.60;6.30;;;;;;;22.38;44.23;100203.15;1698479;82;21087;-70
2022/08/27 04:06:29;;;;;;;13.47;7.47;;;;;;;22.40;44.17;100207.09;1698197;82;21907;-69
2022/08/27 04:08:55;;;;;;;9.30;6.30;;;;;;;22.44;44.46;100201.74;1698777;82;21050;-69
2022/08/27 04:11:22;;;;;;;9.47;6.97;;;;;;;22.48;44.24;100205.38;1699491;82;21121;-70
2022/08/27 04:13:49;;;;;;;10.63;6.83;;;;;;;22.51;43.94;100204.69;1697656;82;21113;-69
2022/08/27 04:16:16;;;;;;;9.63;6.73;;;;;;;22.53;43.97;100209.20;1701729;82;21004;-70
2022/08/27 04:18:43;;;;;;;11.60;7.07;;;;;;;22.58;44.21;100216.34;1698223;82;21810;-69
2022/08/27 04:21:12;;;;;;;10.33;6.50;;;;;;;22.60;44.03;100206.67;1698727;82;21439;-70
2022/08/27 04:23:40;;;;;;;9.10;6.63;;;;;;;22.67;43.90;100206.90;1698760;82;21051;-69
2022/08/27 04:26:07;;;;;;;9.80;6.73;;;;;;;22.75;44.58;100211.17;1697749;82;21031;-70
2022/08/27 04:28:35;;;;;;;11.00;6.97;;;;;;;22.82;44.75;100201.83;1697650;82;22148;-70
2022/08/27 04:31:02;;;;;;;10.07;6.63;;;;;;;22.89;44.76;100202.80;1698058;82;21127;-70
2022/08/27 04:33:31;;;;;;;8.83;6.70;;;;;;;22.94;44.58;100199.08;1698423;82;21066;-69
2022/08/27 04:36:04;;;;;;;9.73;6.60;;;;;;;22.99;43.83;100198.81;1699168;82;21125;-69
2022/08/27 04:38:31;;;;;;;8.53;6.47;;;;;;;23.03;43.50;100201.05;1694663;82;21159;-70
2022/08/27 04:41:21;;;;;;;9.70;6.67;;;;;;;23.07;43.38;100201.95;1700161;82;21960;-69
2022/08/27 04:43:57;;;;;;;11.53;6.97;;;;;;;23.13;43.90;100195.11;1698320;82;21593;-70
2022/08/27 04:46:27;;;;;;;9.40;6.63;;;;;;;23.20;43.80;100193.69;1697692;82;21094;-69
2022/08/27 04:48:56;;;;;;;13.72;7.35;;;;;;;23.22;43.86;100190.84;1700462;82;21727;-69
2022/08/27 04:51:23;;;;;;;14.63;9.53;;;;;;;23.23;43.58;100190.27;1698559;82;21153;-69
2022/08/27 04:53:50;;;;;;;14.10;9.73;;;;;;;23.29;43.15;100192.95;1698081;82;21074;-69
2022/08/27 04:56:21;;;;;;;14.63;9.87;;;;;;;23.33;42.87;100197.36;1697983;82;21530;-68
2022/08/27 04:58:51;;;;;;;13.87;9.10;;;;;;;23.38;42.77;100205.83;1698052;82;21358;-69
2022/08/27 05:01:22;;;;;;;12.78;8.08;;;;;;;23.44;42.95;100205.00;1698180;82;21086;-69
2022/08/27 05:03:49;;;;;;;10.38;7.28;;;;;;;23.50;42.68;100205.75;1700320;84;21017;-70
2022/08/27 05:06:17;;;;;;;9.17;6.47;;;;;;;23.53;42.42;100204.26;1701419;84;20967;-69
2022/08/27 05:08:43;;;;;;;7.63;6.20;;;;;;;23.53;42.45;100203.69;1698982;82;21808;-70
2022/08/27 05:11:13;;;;;;;8.77;6.00;;;;;;;23.55;42.32;100208.19;1695858;82;21171;-69
2022/08/27 05:13:44;;;;;;;10.00;6.67;;;;;;;23.55;42.96;100204.10;1698074;82;21059;-68
2022/08/27 05:16:14;;;;;;;8.77;5.77;;;;;;;23.57;43.25;100201.83;1698612;82;21086;-69
2022/08/27 05:18:41;;;;;;;9.63;5.73;;;;;;;23.61;43.33;100205.42;1699039;82;21066;-69
2022/08/27 05:21:08;;;;;;;10.30;6.07;;;;;;;23.62;43.58;100203.48;1698416;82;21628;-69
2022/08/27 05:23:35;;;;;;;8.30;5.90;;;;;;;23.60;43.03;100200.34;1697218;82;21110;-69
2022/08/27 05:26:02;;;;;;;8.93;5.70;;;;;;;23.59;43.01;100198.19;1698747;82;21059;-70
2022/08/27 05:28:28;;;;;;;10.53;6.00;;;;;;;23.60;42.60;100192.94;1697681;82;21211;-70
2022/08/27 05:31:03;;;;;;;10.10;5.83;;;;;;;23.58;42.54;100195.22;1698310;82;21094;-70
2022/08/27 05:33:29;;;;;;;11.30;6.50;;;;;;;23.59;42.65;100191.37;1700941;82;21140;-69
2022/08/27 05:35:56;;;;;;;9.47;6.43;;;;;;;23.56;42.69;100186.63;1700803;84;21018;-69
2022/08/27 05:38:26;;;;;;;12.20;6.40;;;;;;;23.56;42.82;100183.89;1699460;82;22388;-69
2022/08/27 05:41:13;;;;;;;10.60;6.57;;;;;;;23.57;42.92;100195.01;1696010;82;21542;-72
2022/08/27 05:43:40;;;;;;;10.03;6.03;;;;;;;23.59;42.68;100186.46;1696159;82;20956;-70
2022/08/27 05:46:13;;;;;;;9.27;6.13;;;;;;;23.58;42.95;100186.25;1699083;82;21166;-70
2022/08/27 05:48:42;;;;;;;11.80;6.53;;;;;;;23.55;43.26;100189.11;1706552;82;21007;-71
2022/08/27 05:51:17;;;;;;;10.37;6.83;;;;;;;23.54;43.46;100184.02;1699501;82;21160;-69
2022/08/27 05:53:45;;;;;;;11.27;6.80;;;;;;;23.55;43.61;100185.59;1698455;82;21588;-71
2022/08/27 05:56:16;;;;;;;7.43;6.03;;;;;;;23.55;43.84;100185.02;1698530;82;21119;-70
2022/08/27 06:01:30;;;;;;;9.70;6.50;;;;;;;23.53;44.03;100183.23;1698228;82;21070;-73
2022/08/27 06:03:57;;;;;;;11.13;6.27;;;;;;;23.51;44.08;100177.91;1698815;82;21121;-69
2022/08/27 06:06:24;;;;;;;10.57;6.80;;;;;;;23.49;44.13;100180.98;1698219;82;21126;-70
2022/08/27 06:08:53;;;;;;;11.53;6.63;;;;;;;23.49;44.33;100180.98;1697132;82;21066;-70
2022/08/27 06:11:19;;;;;;;9.57;6.17;;;;;;;23.50;44.35;100187.25;1697423;82;21355;-70
2022/08/27 06:13:48;;;;;;;10.43;7.03;;;;;;;23.53;44.35;100194.14;1698223;82;20983;-70
2022/08/27 06:16:18;;;;;;;11.07;7.20;;;;;;;23.53;44.45;100193.36;1696779;82;21126;-71
2022/08/27 06:18:46;;;;;;;11.57;6.63;;;;;;;23.53;44.38;100191.42;1697984;82;21165;-70
2022/08/27 06:21:13;;;;;;;9.60;6.80;;;;;;;23.55;44.33;100185.59;1698972;82;20987;-68
2022/08/27 06:23:40;;;;;;;10.13;6.77;;;;;;;23.54;44.39;100182.66;1697425;82;21677;-70
2022/08/27 06:26:10;;;;;;;11.77;7.63;;;;;;;23.55;44.42;100192.41;1698781;82;21403;-69
2022/08/27 06:28:40;;;;;;;9.73;6.78;;;;;;;23.55;44.43;100191.84;1698900;82;21336;-70
2022/08/27 06:31:17;;;;;;;12.30;7.77;;;;;;;23.55;44.38;100191.84;1698003;82;21113;-70
2022/08/27 06:33:43;;;;;;;12.23;8.50;;;;;;;23.58;44.44;100191.12;1694730;82;21071;-69
2022/08/27 06:36:13;;;;;;;12.93;8.27;;;;;;;23.63;44.29;100190.88;1696744;82;21055;-69
2022/08/27 06:38:41;;;;;;;14.70;8.17;;;;;;;23.68;44.35;100191.20;1699952;83;20991;-69
2022/08/27 06:41:10;;;;;;;10.90;7.23;;;;;;;23.74;44.53;100191.72;1691175;84;21135;-70
2022/08/27 06:43:39;;;;;;;10.50;6.53;;;;;;;23.83;44.29;100190.96;1677866;83;21078;-68
2022/08/27 06:46:08;;;;;;;11.53;7.03;;;;;;;23.90;44.27;100188.39;1697900;83;21097;-73
2022/08/27 06:48:35;;;;;;;10.87;6.77;;;;;;;23.95;44.06;100184.00;1697965;84;21263;-71
2022/08/27 06:51:11;;;;;;;15.00;7.20;;;;;;;23.99;44.01;100182.17;1701352;83;21036;-71
2022/08/27 06:53:40;;;;;;;12.73;7.33;;;;;;;24.03;43.91;100176.78;1695038;84;21490;-70
2022/08/27 06:56:08;;;;;;;11.50;7.17;;;;;;;24.05;43.85;100175.28;1685149;84;21054;-70
2022/08/27 06:58:35;;;;;;;15.10;7.73;;;;;;;24.07;43.83;100164.79;1675498;84;20995;-70
2022/08/27 07:01:02;;;;;;;11.87;7.93;;;;;;;24.07;44.14;100162.06;1718788;83;21749;-70
2022/08/27 07:03:28;;;;;;;12.87;7.33;;;;;;;24.06;44.35;100156.40;1717095;82;21027;-70
2022/08/27 07:06:03;;;;;;;10.20;6.90;;;;;;;24.05;44.35;100156.19;1712092;82;21209;-71
2022/08/27 07:08:30;;;;;;;12.80;7.20;;;;;;;24.09;44.53;100157.05;1715532;83;21024;-71
2022/08/27 07:10:58;;;;;;;11.77;7.13;;;;;;;24.14;44.60;100157.91;1715204;82;21122;-71
2022/08/27 07:13:28;;;;;;;14.37;7.77;;;;;;;24.20;44.60;100164.66;1715208;82;21114;-68
2022/08/27 07:15:55;;;;;;;12.33;7.00;;;;;;;24.29;44.72;100166.61;1715176;83;21546;-70
2022/08/27 07:18:22;;;;;;;10.10;6.67;;;;;;;24.42;44.96;100162.62;1711788;82;21114;-70
2022/08/27 07:20:53;;;;;;;11.97;7.53;;;;;;;24.56;44.48;100153.91;1714982;82;21116;-70
2022/08/27 07:23:20;;;;;;;10.43;6.20;;;;;;;24.68;44.63;100155.12;1716663;82;21092;-69
2022/08/27 07:25:46;;;;;;;9.60;5.93;;;;;;;24.82;43.61;100149.70;1716963;82;21856;-69
2022/08/27 07:28:13;;;;;;;7.33;4.93;;;;;;;24.96;44.09;100153.45;1717295;83;20949;-69
2022/08/27 07:30:41;;;;;;;8.67;4.93;;;;;;;25.14;43.09;100161.19;1715705;82;21020;-71
2022/08/27 07:33:08;;;;;;;9.70;4.70;;;;;;;25.35;43.15;100161.55;1716326;82;21095;-69
2022/08/27 07:35:34;;;;;;;8.50;4.67;;;;;;;25.61;42.69;100165.47;1714968;82;21435;-70
2022/08/27 07:38:02;;;;;;;7.70;4.20;;;;;;;25.91;42.43;100164.95;1715276;82;21906;-69
2022/08/27 07:40:29;;;;;;;6.73;4.23;;;;;;;26.26;41.80;100166.58;1713444;82;21067;-69
2022/08/27 07:45:46;;;;;;;12.13;4.47;;;;;;;26.97;40.77;100161.67;1715436;82;21463;-70
2022/08/27 07:48:15;;;;;;;8.13;3.77;;;;;;;27.38;40.23;100157.52;1715416;82;21427;-71
2022/08/27 07:50:42;;;;;;;5.87;3.40;;;;;;;27.72;37.75;100153.45;1716315;82;21215;-71
2022/08/27 07:53:09;;;;;;;10.77;3.97;;;;;;;28.04;36.38;100148.75;1715983;82;21051;-72
2022/08/27 07:55:38;;;;;;;7.43;3.77;;;;;;;28.28;36.35;100142.56;1718841;83;21031;-70
2022/08/27 07:58:04;;;;;;;6.20;3.47;;;;;;;28.46;35.28;100141.84;1717209;82;21934;-70
2022/08/27 08:00:32;;;;;;;6.30;3.13;;;;;;;28.54;34.67;100135.80;1716040;82;21056;-73
2022/08/27 08:02:59;;;;;;;6.17;3.50;;;;;;;28.66;34.11;100136.23;1715131;82;21115;-71
2022/08/27 08:05:26;;;;;;;8.70;3.40;;;;;;;28.75;33.07;100132.48;1715976;82;20968;-72
2022/08/27 08:07:53;;;;;;;8.07;3.90;;;;;;;28.88;33.34;100132.11;1719568;82;21089;-71
2022/08/27 08:10:23;;;;;;;7.30;3.90;;;;;;;29.06;32.72;100126.07;1715512;83;21134;-72
2022/08/27 08:12:50;;;;;;;6.40;3.80;;;;;;;29.25;32.55;100121.33;1685186;82;21031;-71
2022/08/27 08:15:17;;;;;;;7.33;3.93;;;;;;;29.39;31.99;100116.61;1715434;82;21960;-71
2022/08/27 08:17:45;;;;;;;7.80;3.80;;;;;;;29.53;32.83;100110.28;1724065;82;20979;-71
2022/08/27 08:20:12;;;;;;;5.57;3.60;;;;;;;29.68;31.12;100111.05;1718938;83;21102;-72
2022/08/27 08:22:39;;;;;;;7.60;4.53;;;;;;;29.80;31.70;100109.84;1717792;83;21049;-73
2022/08/27 08:25:07;;;;;;;6.13;4.00;;;;;;;29.49;31.70;100109.52;1717749;83;21021;-72
2022/08/27 08:27:34;;;;;;;7.13;4.00;;;;;;;29.72;30.52;100106.94;1736249;82;21622;-73
2022/08/27 08:30:02;;;;;;;7.23;3.77;;;;;;;30.06;31.07;100102.45;1721074;82;21031;-72
2022/08/27 08:32:28;;;;;;;9.30;3.87;;;;;;;30.21;30.84;100102.41;1748691;82;21062;-72
2022/08/27 08:34:55;;;;;;;7.13;4.00;;;;;;;30.32;28.81;100101.17;1746771;82;21048;-73
2022/08/27 08:37:23;;;;;;;7.43;4.20;;;;;;;30.40;28.79;100105.25;1723616;82;21071;-75
2022/08/27 08:39:50;;;;;;;10.33;4.90;;;;;;;30.45;27.27;100107.60;1719076;83;21787;-72
2022/08/27 08:42:42;;;;;;;8.53;4.57;;;;;;;30.44;27.30;100105.45;1718792;83;21003;-71
2022/08/27 08:45:09;;;;;;;8.03;4.17;;;;;;;30.55;27.74;100101.23;1729823;82;20956;-71
2022/08/27 08:48:12;;;;;;;7.93;4.20;;;;;;;30.64;27.69;100102.17;1748729;82;21032;-71
2022/08/27 08:50:53;;;;;;;6.97;4.57;;;;;;;30.68;27.75;100098.78;1734250;82;21456;-75
2022/08/27 08:53:44;;;;;;;9.15;4.85;;;;;;;30.70;27.21;100093.63;1722840;82;21137;-74
2022/08/27 08:56:32;;;;;;;9.40;4.60;;;;;;;30.66;27.41;100101.15;1718995;83;21011;-72
2022/08/27 08:59:14;;;;;;;7.27;4.43;;;;;;;30.58;27.44;100105.34;1718941;83;21634;-71
2022/08/27 09:01:44;;;;;;;7.43;4.10;;;;;;;30.55;27.38;100108.13;1717624;83;20991;-72
2022/08/27 09:04:10;;;;;;;9.70;4.77;;;;;;;30.45;27.61;100113.89;1724931;82;21067;-75
2022/08/27 09:06:46;;;;;;;7.43;4.30;;;;;;;30.44;27.75;100106.02;1691294;83;22045;-73
2022/08/27 09:09:30;;;;;;;7.67;4.50;;;;;;;30.37;27.18;100113.73;1717123;83;21407;-71
2022/08/27 09:12:05;;;;;;;7.57;4.60;;;;;;;30.37;28.05;100113.73;1722945;82;21071;-71
2022/08/27 09:14:55;;;;;;;8.77;4.47;;;;;;;30.44;27.99;100101.31;1732573;82;21043;-72
2022/08/27 09:17:22;;;;;;;8.97;5.03;;;;;;;30.48;27.92;100108.17;1716632;82;21054;-72
2022/08/27 09:19:48;;;;;;;6.70;4.33;;;;;;;30.55;28.10;100102.61;1715852;82;21138;-70
2022/08/27 09:22:54;;;;;;;8.40;4.67;;;;;;;30.55;28.31;100099.26;1717067;82;21043;-71
2022/08/27 09:25:28;;;;;;;8.90;4.73;;;;;;;30.53;28.31;100104.38;1696609;82;21162;-72
2022/08/27 09:27:58;;;;;;;13.57;4.70;;;;;;;30.48;28.12;100102.06;1713304;82;21079;-72
2022/08/27 09:30:32;;;;;;;9.40;4.73;;;;;;;30.47;28.89;100105.20;1712985;82;21095;-72
2022/08/27 09:33:04;;;;;;;9.87;4.87;;;;;;;30.45;28.86;100105.63;1685993;83;21132;-71
2022/08/27 09:35:41;;;;;;;9.90;4.70;;;;;;;30.42;28.93;100107.03;1715400;82;21055;-72
2022/08/27 09:38:08;;;;;;;12.03;4.90;;;;;;;30.43;29.59;100107.98;1713856;82;21009;-72
2022/08/27 09:40:41;;;;;;;11.13;5.00;;;;;;;30.50;29.41;100114.83;1715033;82;21522;-72
2022/08/27 09:43:19;;;;;;;9.70;4.70;;;;;;;30.57;29.44;100107.13;1713245;82;21012;-71
2022/08/27 09:45:52;;;;;;;10.30;5.60;;;;;;;30.56;29.27;100102.80;1714618;82;21275;-71
2022/08/27 09:48:26;;;;;;;13.03;5.10;;;;;;;30.56;29.51;100101.41;1712512;82;21027;-72
2022/08/27 09:51:01;;;;;;;10.77;5.00;;;;;;;30.54;29.04;100103.20;1714325;82;21070;-71
2022/08/27 09:53:39;;;;;;;13.30;5.23;;;;;;;30.57;29.77;100107.13;1717233;83;21601;-69
2022/08/27 09:56:08;;;;;;;10.90;4.73;;;;;;;30.64;30.35;100110.44;1719065;83;21056;-72
2022/08/27 09:58:49;;;;;;;13.57;5.37;;;;;;;30.74;29.80;100102.08;1685293;83;21126;-73
2022/08/27 10:01:21;;;;;;;;;;;;;;;30.83;29.18;100098.30;1750084;82;20985;-70
2022/08/27 10:03:48;;;;;;;14.93;5.13;;;;;;;30.90;28.25;100102.98;1752519;81;20457;-73
2022/08/27 10:06:30;;;;;;;18.33;5.50;;;;;;;31.04;27.82;100094.57;1731688;82;20984;-71
2022/08/27 10:09:09;;;;;;;15.00;4.93;;;;;;;31.17;27.91;100098.98;1715874;83;21133;-72
2022/08/27 10:11:41;;;;;;;12.37;4.27;;;;;;;31.37;27.17;100096.45;1704214;82;21269;-74
2022/08/27 10:14:13;;;;;;;14.80;4.90;;;;;;;31.56;26.51;100091.51;1711934;82;21048;-72
2022/08/27 10:17:10;;;;;;;16.50;4.50;;;;;;;31.84;26.00;100099.47;1715229;82;21020;-72
2022/08/27 10:20:05;;;;;;;11.73;4.33;;;;;;;32.16;25.53;100091.41;1714834;82;21065;-71
2022/08/27 10:23:05;;;;;;;12.37;4.03;;;;;;;32.45;24.48;100098.12;1717260;82;21562;-71
2022/08/27 10:25:59;;;;;;;10.03;3.50;;;;;;;32.66;24.25;100098.38;1715714;82;21253;-71
2022/08/27 10:28:43;;;;;;;13.30;4.83;;;;;;;32.83;24.32;100091.60;1714983;82;21083;-70
2022/08/27 10:31:29;;;;;;;9.37;3.93;;;;;;;32.91;23.65;100096.60;1717459;82;20999;-70
2022/08/27 10:34:02;;;;;;;13.10;4.53;;;;;;;32.89;23.35;100101.77;1718492;82;21125;-71
2022/08/27 10:36:51;;;;;;;9.83;4.07;;;;;;;32.85;22.87;100100.27;1716885;82;21098;-72
2022/08/27 10:39:47;;;;;;;14.70;5.07;;;;;;;32.73;24.12;100100.25;1717990;83;21806;-72
2022/08/27 10:42:45;;;;;;;10.93;4.03;;;;;;;32.62;24.91;100096.28;1715426;82;21007;-72
2022/08/27 10:45:25;;;;;;;10.57;4.07;;;;;;;32.55;24.83;100099.16;1713565;82;21217;-70
2022/08/27 10:48:23;;;;;;;14.10;4.25;;;;;;;32.44;25.69;100097.14;1718492;82;21482;-70
2022/08/27 10:51:07;;;;;;;13.43;4.50;;;;;;;32.39;25.10;100100.36;1718299;83;21059;-70
2022/08/27 10:53:51;;;;;;;14.77;4.90;;;;;;;32.37;25.27;100095.84;1721033;82;21901;-70
2022/08/27 10:56:44;;;;;;;10.67;4.00;;;;;;;32.34;25.33;100094.69;1714977;82;21603;-72
2022/08/27 10:59:34;;;;;;;11.77;4.50;;;;;;;32.35;25.83;100094.89;1714903;82;21645;-71
2022/08/27 11:02:27;;;;;;;11.70;4.00;;;;;;;32.41;25.01;100095.98;1715703;82;21468;-71
2022/08/27 11:04:59;;;;;;;10.70;4.03;;;;;;;32.46;25.82;100092.77;1690295;85;20981;-72
2022/08/27 11:07:37;;;;;;;10.83;4.47;;;;;;;32.57;24.34;100091.21;1690120;84;21420;-70
2022/08/27 11:10:27;;;;;;;13.27;4.00;;;;;;;32.67;25.37;100092.25;1712914;82;21102;-70
2022/08/27 11:13:04;;;;;;;11.90;4.00;;;;;;;32.80;25.60;100090.45;1715627;81;21530;-69
2022/08/27 11:15:40;;;;;;;11.57;4.30;;;;;;;33.01;25.80;100081.66;1713262;82;21004;-70
2022/08/27 11:18:37;;;;;;;10.20;3.80;;;;;;;33.14;25.48;100081.23;1714632;82;21055;-71
2022/08/27 11:21:28;;;;;;;10.68;4.15;;;;;;;33.32;24.50;100080.89;1714281;82;21295;-72
2022/08/27 11:24:01;;;;;;;10.43;3.50;;;;;;;33.52;22.82;100076.78;1714045;82;21054;-71
2022/08/27 11:26:30;;;;;;;10.98;3.50;;;;;;;33.63;23.05;100078.75;1692900;82;21524;-71
2022/08/27 11:29:02;;;;;;;8.25;3.15;;;;;;;33.71;23.64;100082.92;1713354;82;21069;-73
2022/08/27 11:31:42;;;;;;;;;;;;;;;33.79;23.02;100078.78;1720148;83;21047;-71
2022/08/27 11:34:30;;;;;;;5.05;2.33;;;;;;;33.83;20.49;100076.73;1716594;82;21274;-71
2022/08/27 11:37:05;;;;;;;7.70;2.30;;;;;;;33.79;20.18;100077.40;1716519;82;21561;-71
2022/08/27 11:39:50;;;;;;;4.62;2.30;;;;;;;33.75;20.10;100074.53;1678333;85;20979;-73
2022/08/27 11:42:34;;;;;;;4.80;2.62;;;;;;;33.73;18.81;100072.20;1705180;82;21078;-71
2022/08/27 11:45:15;;;;;;;4.17;2.22;;;;;;;33.71;18.04;100062.15;1714538;82;21547;-71
2022/08/27 11:47:57;;;;;;;8.30;2.25;;;;;;;33.72;18.77;100067.86;1712089;82;21142;-69
2022/08/27 11:50:25;;;;;;;6.80;2.50;;;;;;;33.73;18.61;100069.44;1718916;83;21385;-72